Terminal Aerodrome Forecast
Issued by NWS Goodland, KS

Home | Current Version | Previous Version | Text Only | Print | Product List | Glossary On
Versions: 1 2 3 4 5 6 7 8 9 10 11 12 13 14 15 16 17 18
000
FTUS43 KGLD 221406 AAB
TAFGLD
TAF AMD
KGLD 221406Z 2214/2312 33024G35KT 3SM BLSN VCSH OVC040
     FM221500 32023G32KT 3SM BLSN SCT150
     FM222300 31013KT P6SM FEW250=

USA.gov is the U.S. government's official web portal to all federal, state and local government web resources and services.